Terminal Aerodrome Forecast
Issued by NWS Omaha/Valley, NE

Home | Current Version | Previous Version | Text Only | Print | Product List | Glossary Off
Versions: 1 2 3 4 5 6 7 8 9 10 11 12 13 14 15 16 17 18 19 20 21 22 23

000
FTUS43 KOAX 291241 AAA
TAFOFK
TAF AMD
KOFK 291241Z 2913/3012 04009KT 5SM -RA BR OVC006
     FM292100 05012G23KT 4SM -RA BR OVC012
     FM300300 03014KT 4SM -RA BR OVC005=

USA.gov is the U.S. government's official web portal to all federal, state and local government web resources and services.